createdAt,value
2023-08-20T00:01:08.919Z,19.90
2023-08-20T00:03:36.092Z,19.80
2023-08-20T00:06:05.102Z,19.80
2023-08-20T00:08:31.973Z,19.80
2023-08-20T00:10:58.751Z,19.80
2023-08-20T00:13:25.648Z,19.80
2023-08-20T00:15:52.679Z,19.80
2023-08-20T00:18:19.810Z,19.90
2023-08-20T00:20:47.032Z,19.90
2023-08-20T00:23:14.223Z,19.90
2023-08-20T00:25:41.441Z,19.90
2023-08-20T00:28:08.205Z,19.90
2023-08-20T00:30:34.998Z,19.90
2023-08-20T00:33:01.815Z,19.90
2023-08-20T00:35:28.720Z,19.90
2023-08-20T00:37:55.529Z,19.90
2023-08-20T00:40:22.391Z,19.90
2023-08-20T00:42:49.386Z,19.90
2023-08-20T00:45:19.918Z,19.90
2023-08-20T00:47:47.050Z,19.90
2023-08-20T00:50:13.998Z,19.90
2023-08-20T00:52:41.121Z,19.90
2023-08-20T00:55:14.475Z,20.00
2023-08-20T00:57:41.870Z,19.90
2023-08-20T01:00:10.326Z,19.90
2023-08-20T01:02:38.841Z,19.90
2023-08-20T01:05:09.112Z,19.90
2023-08-20T01:08:07.492Z,19.90
2023-08-20T01:10:46.309Z,19.90
2023-08-20T01:13:13.527Z,19.90
2023-08-20T01:15:40.427Z,19.90
2023-08-20T01:18:07.305Z,19.90
2023-08-20T01:20:41.002Z,19.90
2023-08-20T01:23:26.373Z,19.90
2023-08-20T01:25:58.712Z,19.90
2023-08-20T01:28:30.370Z,19.80
2023-08-20T01:30:59.069Z,19.80
2023-08-20T01:33:26.321Z,19.80
2023-08-20T01:35:54.437Z,19.80
2023-08-20T01:38:21.630Z,19.70
2023-08-20T01:40:49.321Z,19.70
2023-08-20T01:43:16.626Z,19.60
2023-08-20T01:45:44.672Z,19.60
2023-08-20T01:48:11.584Z,19.60
2023-08-20T01:50:38.379Z,19.60
2023-08-20T01:53:05.286Z,19.60
2023-08-20T01:55:33.038Z,19.60
2023-08-20T01:58:00.377Z,19.60
2023-08-20T02:00:28.744Z,19.50
2023-08-20T02:02:55.756Z,19.60
2023-08-20T02:05:22.653Z,19.50
2023-08-20T02:07:49.501Z,19.50
2023-08-20T02:10:16.363Z,19.50
2023-08-20T02:12:43.254Z,19.50
2023-08-20T02:15:12.250Z,19.50
2023-08-20T02:17:39.427Z,19.50
2023-08-20T02:20:07.846Z,19.40
2023-08-20T02:22:35.385Z,19.40
2023-08-20T02:25:02.451Z,19.40
2023-08-20T02:27:29.267Z,19.40
2023-08-20T02:29:56.124Z,19.40
2023-08-20T02:32:22.970Z,19.30
2023-08-20T02:34:53.303Z,19.30
2023-08-20T02:37:20.167Z,19.30
2023-08-20T02:39:46.982Z,19.30
2023-08-20T02:42:13.731Z,19.30
2023-08-20T02:44:40.439Z,19.30
2023-08-20T02:47:07.374Z,19.30
2023-08-20T02:49:34.270Z,19.30
2023-08-20T02:52:01.032Z,19.20
2023-08-20T02:54:28.000Z,19.20
2023-08-20T02:56:54.764Z,19.20
2023-08-20T02:59:21.497Z,19.10
2023-08-20T03:01:48.377Z,19.10
2023-08-20T03:04:15.267Z,19.10
2023-08-20T03:06:42.088Z,19.00
2023-08-20T03:09:08.868Z,19.00
2023-08-20T03:11:35.662Z,19.00
2023-08-20T03:14:02.410Z,19.00
2023-08-20T03:16:29.191Z,19.00
2023-08-20T03:18:56.005Z,18.90
2023-08-20T03:21:22.839Z,18.90
2023-08-20T03:23:50.575Z,18.90
2023-08-20T03:26:17.410Z,18.90
2023-08-20T03:28:44.309Z,18.80
2023-08-20T03:31:11.122Z,18.80
2023-08-20T03:33:37.911Z,18.80
2023-08-20T03:36:05.081Z,18.80
2023-08-20T03:38:31.898Z,18.70
2023-08-20T03:40:58.741Z,18.70
2023-08-20T03:43:25.504Z,18.70
2023-08-20T03:45:53.199Z,18.70
2023-08-20T03:48:20.265Z,18.60
2023-08-20T03:50:46.982Z,18.60
2023-08-20T03:53:13.749Z,18.60
2023-08-20T03:55:40.519Z,18.60
2023-08-20T03:58:08.076Z,18.60
2023-08-20T04:00:37.216Z,18.50
2023-08-20T04:03:04.259Z,18.50
2023-08-20T04:05:36.490Z,18.40
2023-08-20T04:08:04.321Z,18.40
2023-08-20T04:10:31.416Z,18.40
2023-08-20T04:12:58.402Z,18.30
2023-08-20T04:15:25.130Z,18.30
2023-08-20T04:17:52.014Z,18.30
2023-08-20T04:20:18.825Z,18.30
2023-08-20T04:22:45.650Z,18.30
2023-08-20T04:25:12.705Z,18.30
2023-08-20T04:27:39.613Z,18.30
2023-08-20T04:30:07.771Z,18.30
2023-08-20T04:32:34.790Z,18.20
2023-08-20T04:35:01.756Z,18.20
2023-08-20T04:37:28.548Z,18.20
2023-08-20T04:39:55.315Z,18.20
2023-08-20T04:42:22.146Z,18.20
2023-08-20T04:44:48.874Z,18.20
2023-08-20T04:47:15.826Z,18.20
2023-08-20T04:49:42.673Z,18.20
2023-08-20T04:52:09.441Z,18.20
2023-08-20T04:54:36.235Z,18.20
2023-08-20T04:57:03.357Z,18.20
2023-08-20T04:59:30.107Z,18.20
2023-08-20T05:01:56.822Z,18.20
2023-08-20T05:04:24.037Z,18.20
2023-08-20T05:06:51.318Z,18.20
2023-08-20T05:09:18.083Z,18.20
2023-08-20T05:11:44.863Z,18.30
2023-08-20T05:14:11.618Z,18.30
2023-08-20T05:16:38.409Z,18.30
2023-08-20T05:19:05.167Z,18.30
2023-08-20T05:21:31.921Z,18.30
2023-08-20T05:23:58.680Z,18.40
2023-08-20T05:26:25.424Z,18.40
2023-08-20T05:28:52.151Z,18.50
2023-08-20T05:31:18.939Z,18.50
2023-08-20T05:33:45.816Z,18.60
2023-08-20T05:36:12.598Z,18.60
2023-08-20T05:38:39.457Z,18.60
2023-08-20T05:41:06.462Z,18.60
2023-08-20T05:43:33.190Z,18.70
2023-08-20T05:46:00.029Z,18.70
2023-08-20T05:48:26.769Z,18.70
2023-08-20T05:50:53.599Z,18.70
2023-08-20T05:53:20.448Z,18.80
2023-08-20T05:55:47.213Z,18.80
2023-08-20T05:58:13.996Z,18.90
2023-08-20T06:00:41.054Z,19.00
2023-08-20T06:03:10.642Z,19.00
2023-08-20T06:05:37.717Z,19.00
2023-08-20T06:08:04.791Z,19.10
2023-08-20T06:10:32.095Z,19.10
2023-08-20T06:12:58.837Z,19.10
2023-08-20T06:15:25.631Z,19.20
2023-08-20T06:17:52.625Z,19.20
2023-08-20T06:20:19.912Z,19.30
2023-08-20T06:22:46.842Z,19.30
2023-08-20T06:25:13.670Z,19.40
2023-08-20T06:27:40.453Z,19.40
2023-08-20T06:30:07.925Z,19.50
2023-08-20T06:32:35.458Z,19.60
2023-08-20T06:35:02.309Z,19.60
2023-08-20T06:37:29.094Z,19.70
2023-08-20T06:39:55.854Z,19.80
2023-08-20T06:42:22.631Z,19.80
2023-08-20T06:44:49.413Z,19.90
2023-08-20T06:47:16.239Z,20.00
2023-08-20T06:49:43.100Z,20.00
2023-08-20T06:52:10.452Z,20.10
2023-08-20T06:54:37.275Z,20.10
2023-08-20T06:57:04.319Z,20.10
2023-08-20T06:59:31.083Z,20.20
2023-08-20T07:01:57.875Z,20.20
2023-08-20T07:04:25.100Z,20.30
2023-08-20T07:06:52.752Z,20.30
2023-08-20T07:09:19.548Z,20.30
2023-08-20T07:11:47.986Z,20.40
2023-08-20T07:14:16.426Z,20.40
2023-08-20T07:16:43.317Z,20.50
2023-08-20T07:19:10.047Z,20.50
2023-08-20T07:21:36.825Z,20.50
2023-08-20T07:24:03.801Z,20.60
2023-08-20T07:26:31.097Z,20.70
2023-08-20T07:28:57.969Z,20.80
2023-08-20T07:31:25.888Z,20.90
2023-08-20T07:33:53.607Z,21.00
2023-08-20T07:36:23.167Z,21.10
2023-08-20T07:38:50.718Z,21.10
2023-08-20T07:41:17.724Z,21.20
2023-08-20T07:43:44.660Z,21.30
2023-08-20T07:46:11.664Z,21.30
2023-08-20T07:48:38.567Z,21.30
2023-08-20T07:51:05.701Z,21.40
2023-08-20T07:53:33.621Z,21.50
2023-08-20T07:56:03.669Z,21.60
2023-08-20T07:58:31.109Z,21.70
2023-08-20T08:00:59.105Z,21.70
2023-08-20T08:03:27.790Z,21.80
2023-08-20T08:05:55.263Z,21.80
2023-08-20T08:08:22.978Z,21.80
2023-08-20T08:10:50.411Z,21.80
2023-08-20T08:13:21.805Z,21.90
2023-08-20T08:15:49.046Z,21.90
2023-08-20T08:18:15.999Z,22.00
2023-08-20T08:20:42.939Z,22.10
2023-08-20T08:23:09.986Z,22.10
2023-08-20T08:25:36.824Z,22.20
2023-08-20T08:28:04.268Z,22.20
2023-08-20T08:30:31.316Z,22.40
2023-08-20T08:32:59.126Z,22.40
2023-08-20T08:35:26.013Z,22.50
2023-08-20T08:37:52.913Z,22.60
2023-08-20T08:40:19.793Z,22.60
2023-08-20T08:42:52.972Z,22.70
2023-08-20T08:45:23.426Z,22.70
2023-08-20T08:47:51.760Z,22.70
2023-08-20T08:50:18.791Z,22.70
2023-08-20T08:52:47.695Z,22.80
2023-08-20T08:55:14.525Z,22.80
2023-08-20T08:57:41.344Z,22.90
2023-08-20T09:00:08.680Z,22.90
2023-08-20T09:02:35.466Z,22.80
2023-08-20T09:05:02.289Z,22.90
2023-08-20T09:07:30.078Z,22.90
2023-08-20T09:10:01.639Z,23.00
2023-08-20T09:12:28.868Z,23.10
2023-08-20T09:15:01.538Z,23.20
2023-08-20T09:17:29.667Z,23.30
2023-08-20T09:19:58.376Z,23.40
2023-08-20T09:22:25.391Z,23.40
2023-08-20T09:24:57.075Z,23.40
2023-08-20T09:27:24.759Z,23.40
2023-08-20T09:30:01.005Z,23.40
2023-08-20T09:32:29.476Z,23.50
2023-08-20T09:34:57.170Z,23.50
2023-08-20T09:37:24.976Z,23.50
2023-08-20T09:39:52.043Z,23.50
2023-08-20T09:42:18.977Z,23.60
2023-08-20T09:44:49.573Z,23.60
2023-08-20T09:47:19.081Z,23.60
2023-08-20T09:49:48.338Z,23.70
2023-08-20T09:52:26.621Z,23.80
2023-08-20T09:54:56.095Z,23.90
2023-08-20T09:57:37.063Z,23.90
2023-08-20T10:00:06.710Z,23.90
2023-08-20T10:02:34.986Z,23.90
2023-08-20T10:05:03.406Z,23.90
2023-08-20T10:07:34.536Z,23.90
2023-08-20T10:10:07.139Z,23.90
2023-08-20T10:12:35.420Z,23.80
2023-08-20T10:15:03.311Z,23.90
2023-08-20T10:17:35.503Z,23.90
2023-08-20T10:20:05.339Z,24.00
2023-08-20T10:22:46.084Z,24.10
2023-08-20T10:25:24.189Z,24.10
2023-08-20T10:27:51.134Z,24.10
2023-08-20T10:30:26.654Z,24.30
2023-08-20T10:32:55.363Z,24.40
2023-08-20T10:35:47.154Z,24.60
2023-08-20T10:38:20.519Z,24.60
2023-08-20T10:40:53.465Z,24.80
2023-08-20T10:43:30.862Z,24.80
2023-08-20T10:46:16.189Z,24.90
2023-08-20T10:48:43.874Z,25.00
2023-08-20T10:51:15.401Z,25.00
2023-08-20T10:53:44.097Z,25.10
2023-08-20T10:56:16.029Z,25.20
2023-08-20T10:58:47.604Z,25.30
2023-08-20T11:01:20.853Z,25.40
2023-08-20T11:03:49.771Z,25.40
2023-08-20T11:06:17.477Z,25.40
2023-08-20T11:08:45.187Z,25.50
2023-08-20T11:11:12.824Z,25.50
2023-08-20T11:13:39.817Z,25.50
2023-08-20T11:16:08.883Z,25.50
2023-08-20T11:18:36.051Z,25.50
2023-08-20T11:21:03.768Z,25.50
2023-08-20T11:23:30.774Z,25.60
2023-08-20T11:25:58.713Z,25.70
2023-08-20T11:28:28.096Z,25.90
2023-08-20T11:30:56.996Z,26.00
2023-08-20T11:33:25.137Z,26.00
2023-08-20T11:35:53.064Z,26.10
2023-08-20T11:38:22.788Z,26.10
2023-08-20T11:40:49.602Z,26.20
2023-08-20T11:43:17.971Z,26.20
2023-08-20T11:45:49.454Z,26.20
2023-08-20T11:48:17.720Z,26.30
2023-08-20T11:50:45.275Z,26.40
2023-08-20T11:53:12.390Z,26.40
2023-08-20T11:55:41.313Z,26.50
2023-08-20T11:58:12.661Z,26.60
2023-08-20T12:00:39.744Z,26.50
2023-08-20T12:03:06.837Z,26.50
2023-08-20T12:05:33.647Z,26.60
2023-08-20T12:08:02.510Z,26.60
2023-08-20T12:10:30.880Z,26.70
2023-08-20T12:12:58.546Z,26.60
2023-08-20T12:15:26.288Z,26.70
2023-08-20T12:17:57.857Z,26.80
2023-08-20T12:20:24.708Z,26.80
2023-08-20T12:22:51.442Z,26.80
2023-08-20T12:25:18.570Z,26.70
2023-08-20T12:27:45.389Z,26.60
2023-08-20T12:30:12.872Z,26.50
2023-08-20T12:32:39.721Z,26.40
2023-08-20T12:35:07.672Z,26.40
2023-08-20T12:37:35.500Z,26.30
2023-08-20T12:40:02.504Z,26.30
2023-08-20T12:42:30.422Z,26.40
2023-08-20T12:44:57.197Z,26.60
2023-08-20T12:47:23.999Z,26.80
2023-08-20T12:49:50.802Z,26.90
2023-08-20T12:52:17.583Z,27.00
2023-08-20T12:54:44.382Z,27.10
2023-08-20T12:57:11.159Z,27.10
2023-08-20T12:59:37.925Z,27.20
2023-08-20T13:02:04.925Z,27.20
2023-08-20T13:04:32.037Z,27.30
2023-08-20T13:06:59.023Z,27.30
2023-08-20T13:09:26.084Z,27.30
2023-08-20T13:11:56.474Z,27.30
2023-08-20T13:14:23.519Z,27.20
2023-08-20T13:16:50.660Z,27.10
2023-08-20T13:19:17.756Z,27.20
2023-08-20T13:21:44.477Z,27.10
2023-08-20T13:24:11.375Z,27.10
2023-08-20T13:26:38.137Z,27.00
2023-08-20T13:29:04.937Z,27.00
2023-08-20T13:31:31.756Z,26.90
2023-08-20T13:33:58.508Z,26.90
2023-08-20T13:36:25.296Z,26.90
2023-08-20T13:38:52.132Z,26.90
2023-08-20T13:41:19.331Z,26.80
2023-08-20T13:43:46.261Z,26.70
2023-08-20T13:46:13.080Z,26.70
2023-08-20T13:48:39.912Z,26.80
2023-08-20T13:51:06.671Z,26.90
2023-08-20T13:53:33.496Z,27.00
2023-08-20T13:56:00.285Z,27.10
2023-08-20T13:58:27.056Z,27.10
2023-08-20T14:00:53.844Z,27.10
2023-08-20T14:03:20.646Z,27.20
2023-08-20T14:05:47.453Z,27.10
2023-08-20T14:08:14.264Z,27.10
2023-08-20T14:10:41.190Z,27.10
2023-08-20T14:13:07.977Z,27.20
2023-08-20T14:15:34.810Z,27.20
2023-08-20T14:18:01.684Z,27.20
2023-08-20T14:20:28.628Z,27.30
2023-08-20T14:22:55.413Z,27.30
2023-08-20T14:25:22.180Z,27.20
2023-08-20T14:27:48.973Z,27.10
2023-08-20T14:30:15.812Z,27.10
2023-08-20T14:32:43.413Z,27.00
2023-08-20T14:35:11.101Z,27.00
2023-08-20T14:37:37.900Z,26.90
2023-08-20T14:40:07.616Z,26.90
2023-08-20T14:42:35.341Z,26.80
2023-08-20T14:45:03.885Z,26.70
2023-08-20T14:47:30.958Z,26.50
2023-08-20T14:49:57.746Z,26.40
2023-08-20T14:52:24.518Z,26.30
2023-08-20T14:54:51.388Z,26.20
2023-08-20T14:57:18.742Z,26.20
2023-08-20T14:59:45.780Z,26.20
2023-08-20T15:02:12.788Z,26.20
2023-08-20T15:04:39.668Z,26.30
2023-08-20T15:07:06.440Z,26.40
2023-08-20T15:09:33.223Z,26.40
2023-08-20T15:11:59.997Z,26.50
2023-08-20T15:14:26.912Z,26.60
2023-08-20T15:16:53.986Z,26.60
2023-08-20T15:19:20.989Z,26.50
2023-08-20T15:21:47.829Z,26.60
2023-08-20T15:24:14.826Z,26.60
2023-08-20T15:26:41.608Z,26.50
2023-08-20T15:29:08.452Z,26.50
2023-08-20T15:31:35.241Z,26.60
2023-08-20T15:34:02.042Z,26.60
2023-08-20T15:36:28.793Z,26.60
2023-08-20T15:38:55.602Z,26.60
2023-08-20T15:41:23.466Z,26.60
2023-08-20T15:43:50.956Z,26.50
2023-08-20T15:46:17.778Z,26.50
2023-08-20T15:48:44.892Z,26.50
2023-08-20T15:51:11.695Z,26.50
2023-08-20T15:53:39.050Z,26.50
2023-08-20T15:56:05.794Z,26.50
2023-08-20T15:58:33.361Z,26.60
2023-08-20T16:01:00.151Z,26.50
2023-08-20T16:03:27.022Z,26.60
2023-08-20T16:05:54.024Z,26.60
2023-08-20T16:08:20.977Z,26.50
2023-08-20T16:10:47.790Z,26.50
2023-08-20T16:13:14.592Z,26.50
2023-08-20T16:15:41.522Z,26.50
2023-08-20T16:18:09.013Z,26.50
2023-08-20T16:20:37.801Z,26.40
2023-08-20T16:23:04.894Z,26.40
2023-08-20T16:25:33.764Z,26.40
2023-08-20T16:28:00.625Z,26.40
2023-08-20T16:30:27.525Z,26.40
2023-08-20T16:32:54.591Z,26.40
2023-08-20T16:35:21.544Z,26.50
2023-08-20T16:37:48.286Z,26.50
2023-08-20T16:40:22.394Z,26.50
2023-08-20T16:42:49.159Z,26.50
2023-08-20T16:45:16.018Z,26.50
2023-08-20T16:47:42.817Z,26.40
2023-08-20T16:50:10.225Z,26.40
2023-08-20T16:52:37.021Z,26.40
2023-08-20T16:55:04.451Z,26.40
2023-08-20T16:57:31.259Z,26.50
2023-08-20T16:59:58.112Z,26.50
2023-08-20T17:02:24.860Z,26.50
2023-08-20T17:04:51.676Z,26.50
2023-08-20T17:07:18.466Z,26.50
2023-08-20T17:09:45.277Z,26.40
2023-08-20T17:12:12.251Z,26.40
2023-08-20T17:14:40.113Z,26.40
2023-08-20T17:17:07.505Z,26.40
2023-08-20T17:19:34.262Z,26.40
2023-08-20T17:22:01.181Z,26.40
2023-08-20T17:24:27.995Z,26.30
2023-08-20T17:26:54.721Z,26.40
2023-08-20T17:29:21.436Z,26.40
2023-08-20T17:31:48.177Z,26.40
2023-08-20T17:34:14.924Z,26.30
2023-08-20T17:36:41.695Z,26.30
2023-08-20T17:39:09.061Z,26.30
2023-08-20T17:41:35.838Z,26.30
2023-08-20T17:44:02.707Z,26.20
2023-08-20T17:46:43.641Z,26.10
2023-08-20T17:49:10.484Z,26.10
2023-08-20T17:51:37.310Z,26.00
2023-08-20T17:54:05.228Z,25.90
2023-08-20T17:56:32.122Z,25.70
2023-08-20T17:58:58.884Z,25.50
2023-08-20T18:01:25.798Z,25.40
2023-08-20T18:03:52.992Z,25.30
2023-08-20T18:06:19.838Z,25.10
2023-08-20T18:08:46.921Z,25.00
2023-08-20T18:11:13.707Z,25.00
2023-08-20T18:13:40.849Z,24.90
2023-08-20T18:16:09.413Z,24.90
2023-08-20T18:18:37.595Z,24.80
2023-08-20T18:21:04.429Z,24.80
2023-08-20T18:23:31.239Z,24.70
2023-08-20T18:25:58.893Z,24.80
2023-08-20T18:28:25.666Z,24.90
2023-08-20T18:30:55.772Z,25.00
2023-08-20T18:33:22.842Z,24.90
2023-08-20T18:35:56.699Z,24.80
2023-08-20T18:38:32.638Z,24.60
2023-08-20T18:41:04.127Z,24.50
2023-08-20T18:43:31.207Z,24.40
2023-08-20T18:45:58.110Z,24.30
2023-08-20T18:48:25.005Z,24.20
2023-08-20T18:50:51.927Z,24.10
2023-08-20T18:53:18.705Z,24.00
2023-08-20T18:55:45.449Z,23.90
2023-08-20T18:58:12.267Z,23.80
2023-08-20T19:00:39.382Z,23.80
2023-08-20T19:03:08.019Z,23.70
2023-08-20T19:05:34.996Z,23.60
2023-08-20T19:08:01.876Z,23.50
2023-08-20T19:10:29.424Z,23.40
2023-08-20T19:12:56.262Z,23.40
2023-08-20T19:15:23.032Z,23.30
2023-08-20T19:17:50.035Z,23.30
2023-08-20T19:20:16.884Z,23.20
2023-08-20T19:22:43.826Z,23.10
2023-08-20T19:25:10.813Z,23.10
2023-08-20T19:27:37.647Z,23.00
2023-08-20T19:30:07.295Z,22.90
2023-08-20T19:32:35.665Z,22.80
2023-08-20T19:35:02.982Z,22.80
2023-08-20T19:37:30.519Z,22.70
2023-08-20T19:39:57.395Z,22.60
2023-08-20T19:42:24.258Z,22.60
2023-08-20T19:44:51.201Z,22.50
2023-08-20T19:47:18.010Z,22.50
2023-08-20T19:49:44.775Z,22.40
2023-08-20T19:52:11.545Z,22.30
2023-08-20T19:54:38.352Z,22.20
2023-08-20T19:57:05.152Z,22.10
2023-08-20T19:59:31.982Z,22.10
2023-08-20T20:01:58.749Z,22.00
2023-08-20T20:04:25.683Z,22.00
2023-08-20T20:06:52.910Z,22.00
2023-08-20T20:09:21.147Z,21.90
2023-08-20T20:11:47.946Z,21.90
2023-08-20T20:14:14.731Z,21.80
2023-08-20T20:16:41.598Z,21.80
2023-08-20T20:19:08.404Z,21.70
2023-08-20T20:21:35.202Z,21.70
2023-08-20T20:24:02.098Z,21.70
2023-08-20T20:26:28.925Z,21.60
2023-08-20T20:28:55.806Z,21.60
2023-08-20T20:31:22.840Z,21.50
2023-08-20T20:33:49.691Z,21.50
2023-08-20T20:36:16.770Z,21.40
2023-08-20T20:38:43.531Z,21.40
2023-08-20T20:41:11.175Z,21.40
2023-08-20T20:43:37.887Z,21.40
2023-08-20T20:46:04.820Z,21.30
2023-08-20T20:48:31.581Z,21.20
2023-08-20T20:50:58.313Z,21.20
2023-08-20T20:53:25.099Z,21.10
2023-08-20T20:55:51.894Z,21.10
2023-08-20T20:58:18.903Z,21.10
2023-08-20T21:00:47.198Z,21.00
2023-08-20T21:03:14.025Z,21.00
2023-08-20T21:05:44.422Z,21.00
2023-08-20T21:08:11.216Z,21.00
2023-08-20T21:10:37.956Z,20.90
2023-08-20T21:13:06.785Z,20.90
2023-08-20T21:15:33.513Z,20.90
2023-08-20T21:18:00.270Z,20.90
2023-08-20T21:20:27.104Z,20.90
2023-08-20T21:22:55.438Z,20.80
2023-08-20T21:25:22.279Z,20.80
2023-08-20T21:27:49.044Z,20.80
2023-08-20T21:30:16.223Z,20.80
2023-08-20T21:32:43.076Z,20.70
2023-08-20T21:35:09.977Z,20.70
2023-08-20T21:37:36.740Z,20.70
2023-08-20T21:40:03.745Z,20.70
2023-08-20T21:42:30.577Z,20.60
2023-08-20T21:44:57.432Z,20.60
2023-08-20T21:47:26.155Z,20.60
2023-08-20T21:49:54.356Z,20.60
2023-08-20T21:52:22.537Z,20.60
2023-08-20T21:54:49.487Z,20.60
2023-08-20T21:57:21.115Z,20.50
2023-08-20T21:59:52.587Z,20.50
2023-08-20T22:02:19.884Z,20.50
2023-08-20T22:04:46.836Z,20.50
2023-08-20T22:07:13.591Z,20.40
2023-08-20T22:09:40.417Z,20.40
2023-08-20T22:12:07.630Z,20.40
2023-08-20T22:14:34.685Z,20.40
2023-08-20T22:17:06.892Z,20.30
2023-08-20T22:19:36.268Z,20.30
2023-08-20T22:22:03.329Z,20.30
2023-08-20T22:24:30.106Z,20.30
2023-08-20T22:26:56.889Z,20.30
2023-08-20T22:29:23.667Z,20.30
2023-08-20T22:31:50.638Z,20.20
2023-08-20T22:34:17.442Z,20.20
2023-08-20T22:36:45.207Z,20.20
2023-08-20T22:39:13.963Z,20.10
2023-08-20T22:41:40.791Z,20.10
2023-08-20T22:44:08.103Z,20.00
2023-08-20T22:46:34.943Z,20.00
2023-08-20T22:49:02.432Z,20.00
2023-08-20T22:51:29.567Z,19.90
2023-08-20T22:53:56.871Z,19.90
2023-08-20T22:56:24.623Z,19.90
2023-08-20T22:58:51.460Z,19.90
2023-08-20T23:01:18.325Z,19.90
2023-08-20T23:03:45.126Z,19.80
2023-08-20T23:06:11.906Z,19.80
2023-08-20T23:08:38.686Z,19.80
2023-08-20T23:11:05.415Z,19.80
2023-08-20T23:13:32.188Z,19.70
2023-08-20T23:15:58.957Z,19.70
2023-08-20T23:18:25.679Z,19.70
2023-08-20T23:21:01.400Z,19.60
2023-08-20T23:23:31.230Z,19.60
2023-08-20T23:25:57.950Z,19.60
2023-08-20T23:28:25.168Z,19.50
2023-08-20T23:30:52.009Z,19.50
2023-08-20T23:33:19.048Z,19.50
2023-08-20T23:35:45.913Z,19.40
2023-08-20T23:38:13.762Z,19.40
2023-08-20T23:40:40.682Z,19.40
2023-08-20T23:43:07.452Z,19.30
2023-08-20T23:45:34.220Z,19.30
2023-08-20T23:48:01.023Z,19.30
2023-08-20T23:50:27.803Z,19.20
2023-08-20T23:52:54.842Z,19.20
2023-08-20T23:55:21.683Z,19.20
2023-08-20T23:57:48.456Z,19.10
